Detalii statie VIITORUL MAILAT [00001CF8]

Toti senzorii

Date Temperatura solului [C]Precipitatii [mm]Voltaj baterie [mV]HC Air temperature [C]HC Relative humidity [%]Punctul de roua [C]
medieminmaxsumaultimamedieminmaxmediemediemin
2019-10-19 23:00:00 15.6 15.6 15.8 0 6932 10.88 10.18 11.94 100 10.8 10.1
2019-10-20 00:00:00 15.6 15.6 15.7 0 6942 12 11.43 12.74 100 11.9 11.4
2019-10-20 01:00:00 15.5 15.5 15.7 0 6922 12.19 11.42 13.12 100 12.1 11.4
2019-10-20 02:00:00 15.4 15.4 15.6 0 6922 11.25 10.78 11.72 100 11.2 10.7
2019-10-20 03:00:00 15.4 15.3 15.6 0 6914 11.24 10.71 11.88 100 11.2 10.7
2019-10-20 04:00:00 15.2 15.2 15.4 0 6904 10.95 10.67 11.07 100 10.9 10.6
2019-10-20 05:00:00 15.2 15.1 15.3 0 6894 10.54 10.01 10.9 100 10.5 10
2019-10-20 06:00:00 15.1 15.1 15.4 0 6884 9.83 8.94 10.83 100 9.7 8.9
2019-10-20 07:00:00 15 15 15.2 0 6864 9.4 8.89 9.96 100 9.3 8.8
2019-10-20 08:00:00 14.9 14.8 15.1 0 6904 12.02 10.08 14.62 100 11.9 10
2019-10-20 09:00:00 14.8 14.7 14.9 0 7108 16.67 15 18.6 100 16.6 15
2019-10-20 10:00:00 14.7 14.7 14.9 0 7264 19.84 19.06 20.62 100 19.7 19
2019-10-20 11:00:00 14.7 14.6 14.8 0 7294 21.84 20.89 23.35 96 21 20.5
2019-10-20 12:00:00 14.7 14.6 14.8 0 7294 22.93 22.25 23.73 94.83 21.9 21.2
2019-10-20 13:00:00 14.8 14.7 15 0 7294 24.39 23.04 25.78 92.54 22.9 21.6
2019-10-20 14:00:00 14.9 14.9 15.1 0 7294 26.03 25.16 27.12 87.32 23.6 22.3
2019-10-20 15:00:00 15.1 15 15.4 0 7274 26.33 25.97 26.79 83.56 23.2 22.6
2019-10-20 16:00:00 15.2 15.1 15.4 0 7166 25.22 24.64 26 83.73 22.1 21.2
2019-10-20 17:00:00 15.3 15.3 15.4 0 7040 23.22 21.54 24.58 92.52 21.7 21
2019-10-20 18:00:00 15.5 15.4 15.7 0 6972 18.77 16.66 21.09 99.95 18.7 16.6
2019-10-20 19:00:00 15.6 15.5 15.7 0 6962 15.36 14.19 16.68 100 15.3 14.1
2019-10-20 20:00:00 15.6 15.6 15.8 0 6962 13.1 12.39 14.03 100 13 12.3
2019-10-20 21:00:00 15.7 15.6 15.8 0 6952 11.76 11.44 12.08 100 11.7 11.4
2019-10-20 22:00:00 15.7 15.6 15.8 0 6952 11.37 10.9 11.88 100 11.3 10.9
2019-10-20 23:00:00 15.6 15.6 15.7 0 6942 12.32 11.02 13.64 100 12.2 11
2019-10-21 00:00:00 15.6 15.5 15.7 0 6942 13.42 13.01 13.89 100 13.3 13
2019-10-21 01:00:00 15.5 15.5 15.7 0 6922 13.2 13.01 13.47 100 13.1 13
2019-10-21 02:00:00 15.4 15.4 15.6 0 6914 12.83 12.16 13.4 100 12.7 12.1
2019-10-21 03:00:00 15.3 15.3 15.4 0 6922 13.14 11.76 13.92 100 13 11.7
2019-10-21 04:00:00 15.2 15.2 15.4 0 6904 11.81 11.32 12.67 100 11.7 11.3
2019-10-21 05:00:00 15.2 15.1 15.4 0 6884 10.57 10.18 11.2 100 10.5 10.1
2019-10-21 06:00:00 15.1 15.1 15.3 0 6864 10.22 9.5 10.77 100 10.1 9.5
2019-10-21 07:00:00 15 15 15.1 0 6864 10.16 9.61 10.63 100 10.1 9.6
2019-10-21 08:00:00 14.9 14.9 15.1 0 6894 11.98 10.49 13.77 100 11.9 10.4
2019-10-21 09:00:00 14.8 14.7 14.9 0 7108 16.05 14.1 18.03 100 16 14.1
2019-10-21 10:00:00 14.7 14.7 14.9 0 7284 20.02 18.46 21.31 99.81 19.9 18.4
2019-10-21 11:00:00 14.7 14.6 14.8 0 7294 22.43 21.52 23.16 98.83 22.1 21.3